Time,TemperatureF,DewpointF,PressureIn,WindDirection,WindDirectionDegrees,WindSpeedMPH,WindSpeedGustMPH,Humidity,HourlyPrecipIn,Conditions,Clouds,dailyrainin,SolarRadiationWatts/m^2,SoftwareType,DateUTC
2013-05-07 00:21:00,34.0,20.0,-100.00,NNE,27,2.0,5.0,57,0.00,,,0.00,0.000000,,2013-05-07 08:21:00,
2013-05-07 00:31:00,34.0,20.0,-100.00,NNE,27,2.0,5.0,57,0.00,,,0.00,0.000000,,2013-05-07 08:31:00,
2013-05-07 00:41:00,34.0,20.0,-100.00,NNE,27,2.0,5.0,57,0.00,,,0.00,0.000000,,2013-05-07 08:41:00,
2013-05-07 00:52:00,34.0,20.0,-100.00,NNE,27,2.0,5.0,57,0.00,,,0.00,0.000000,,2013-05-07 08:52:00,
2013-05-07 01:22:00,33.0,23.0,-100.00,SW,216,1.0,4.0,67,0.00,,,0.00,0.000000,,2013-05-07 09:22:00,
2013-05-07 01:33:00,33.0,23.0,-100.00,SW,216,1.0,4.0,67,0.00,,,0.00,0.000000,,2013-05-07 09:33:00,
2013-05-07 01:42:00,33.0,23.0,-100.00,SW,216,1.0,4.0,67,0.00,,,0.00,0.000000,,2013-05-07 09:42:00,
2013-05-07 01:52:00,33.0,23.0,-100.00,SW,216,1.0,4.0,67,0.00,,,0.00,0.000000,,2013-05-07 09:52:00,
2013-05-07 02:23:00,32.0,23.0,-100.00,SSE,149,1.0,3.0,69,0.00,,,0.00,0.000000,,2013-05-07 10:23:00,
2013-05-07 02:32:00,32.0,23.0,-100.00,SSE,149,1.0,3.0,69,0.00,,,0.00,0.000000,,2013-05-07 10:32:00,
2013-05-07 02:42:00,32.0,23.0,-100.00,SSE,149,1.0,3.0,69,0.00,,,0.00,0.000000,,2013-05-07 10:42:00,
2013-05-07 02:52:00,32.0,23.0,-100.00,SSE,149,1.0,3.0,69,0.00,,,0.00,0.000000,,2013-05-07 10:52:00,
2013-05-07 03:22:00,33.0,23.0,-100.00,SSW,195,0.0,2.0,66,0.00,,,0.00,0.000000,,2013-05-07 11:22:00,
2013-05-07 03:32:00,33.0,23.0,-100.00,SSW,195,0.0,2.0,66,0.00,,,0.00,0.000000,,2013-05-07 11:32:00,
2013-05-07 03:42:00,33.0,23.0,-100.00,SSW,195,0.0,2.0,66,0.00,,,0.00,0.000000,,2013-05-07 11:42:00,
2013-05-07 03:51:00,33.0,23.0,-100.00,SSW,195,0.0,2.0,66,0.00,,,0.00,0.000000,,2013-05-07 11:51:00,
2013-05-07 04:21:00,32.0,23.0,-100.00,NE,36,2.0,3.0,69,0.00,,,0.00,0.000000,,2013-05-07 12:21:00,
2013-05-07 04:32:00,32.0,23.0,-100.00,NE,36,2.0,3.0,69,0.00,,,0.00,0.000000,,2013-05-07 12:32:00,
2013-05-07 04:42:00,32.0,23.0,-100.00,NE,36,2.0,3.0,69,0.00,,,0.00,0.000000,,2013-05-07 12:42:00,
2013-05-07 04:52:00,32.0,23.0,-100.00,NE,36,2.0,3.0,69,0.00,,,0.00,0.000000,,2013-05-07 12:52:00,
2013-05-07 05:21:00,32.0,23.0,-100.00,West,267,1.0,2.0,68,0.00,,,0.00,0.000000,,2013-05-07 13:21:00,
2013-05-07 05:32:00,32.0,23.0,-100.00,West,267,1.0,2.0,68,0.00,,,0.00,0.000000,,2013-05-07 13:32:00,
2013-05-07 05:42:00,32.0,23.0,-100.00,West,267,1.0,2.0,68,0.00,,,0.00,0.000000,,2013-05-07 13:42:00,
2013-05-07 05:52:00,32.0,23.0,-100.00,West,267,1.0,2.0,68,0.00,,,0.00,0.000000,,2013-05-07 13:52:00,
2013-05-07 06:21:00,32.0,24.0,-100.00,NE,42,2.0,3.0,72,0.00,,,0.00,2.000000,,2013-05-07 14:21:00,
2013-05-07 06:31:00,32.0,24.0,-100.00,NE,42,2.0,3.0,72,0.00,,,0.00,2.000000,,2013-05-07 14:31:00,
2013-05-07 06:42:00,32.0,24.0,-100.00,NE,42,2.0,3.0,72,0.00,,,0.00,2.000000,,2013-05-07 14:42:00,
2013-05-07 06:52:00,32.0,24.0,-100.00,NE,42,2.0,3.0,72,0.00,,,0.00,2.000000,,2013-05-07 14:52:00,
2013-05-07 07:21:00,33.0,24.0,-100.00,ENE,64,1.0,2.0,70,0.00,,,0.00,27.000000,,2013-05-07 15:21:00,
2013-05-07 07:33:00,33.0,24.0,-100.00,ENE,64,1.0,2.0,70,0.00,,,0.00,27.000000,,2013-05-07 15:33:00,
2013-05-07 07:42:00,33.0,24.0,-100.00,ENE,64,1.0,2.0,70,0.00,,,0.00,27.000000,,2013-05-07 15:42:00,
2013-05-07 07:52:00,33.0,24.0,-100.00,ENE,64,1.0,2.0,70,0.00,,,0.00,27.000000,,2013-05-07 15:52:00,
2013-05-07 10:21:00,40.0,25.0,-100.00,NW,323,4.0,6.0,55,-99.99,,,0.00,335.000000,,2013-05-07 18:21:00,
2013-05-07 10:31:00,40.0,25.0,-100.00,NW,323,4.0,6.0,55,-99.99,,,0.00,335.000000,,2013-05-07 18:31:00,
2013-05-07 10:41:00,40.0,25.0,-100.00,NW,323,4.0,6.0,55,-99.99,,,0.00,335.000000,,2013-05-07 18:41:00,
2013-05-07 10:51:00,40.0,25.0,-100.00,NW,323,4.0,6.0,55,-99.99,,,0.00,335.000000,,2013-05-07 18:51:00,
2013-05-07 11:21:00,43.0,27.0,-100.00,WSW,252,3.0,6.0,52,0.00,,,0.00,432.000000,,2013-05-07 19:21:00,
2013-05-07 11:32:00,43.0,27.0,-100.00,WSW,252,3.0,6.0,52,0.00,,,0.00,432.000000,,2013-05-07 19:32:00,
2013-05-07 11:41:00,43.0,27.0,-100.00,WSW,252,3.0,6.0,52,0.00,,,0.00,432.000000,,2013-05-07 19:41:00,
2013-05-07 11:52:00,43.0,27.0,-100.00,WSW,252,3.0,6.0,52,0.00,,,0.00,432.000000,,2013-05-07 19:52:00,
2013-05-07 12:21:00,43.0,27.0,-100.00,WSW,246,5.0,8.0,52,0.00,,,0.00,527.000000,,2013-05-07 20:21:00,
2013-05-07 12:32:00,43.0,27.0,-100.00,WSW,246,5.0,8.0,52,0.00,,,0.00,527.000000,,2013-05-07 20:32:00,
2013-05-07 12:41:00,43.0,27.0,-100.00,WSW,246,5.0,8.0,52,0.00,,,0.00,527.000000,,2013-05-07 20:41:00,
2013-05-07 12:51:00,43.0,27.0,-100.00,WSW,246,5.0,8.0,52,0.00,,,0.00,527.000000,,2013-05-07 20:51:00,
2013-05-07 13:21:00,44.0,28.0,-100.00,WSW,239,5.0,10.0,53,0.00,,,0.00,625.000000,,2013-05-07 21:21:00,
2013-05-07 13:32:00,44.0,28.0,-100.00,WSW,239,5.0,10.0,53,0.00,,,0.00,625.000000,,2013-05-07 21:32:00,
2013-05-07 13:42:00,44.0,28.0,-100.00,WSW,239,5.0,10.0,53,0.00,,,0.00,625.000000,,2013-05-07 21:42:00,
2013-05-07 13:52:00,44.0,28.0,-100.00,WSW,239,5.0,10.0,53,0.00,,,0.00,625.000000,,2013-05-07 21:52:00,
2013-05-07 14:22:00,42.0,27.0,-100.00,SW,225,5.0,9.0,56,0.00,,,0.00,572.000000,,2013-05-07 22:22:00,
2013-05-07 14:32:00,42.0,27.0,-100.00,SW,225,5.0,9.0,56,0.00,,,0.00,572.000000,,2013-05-07 22:32:00,
2013-05-07 14:42:00,42.0,27.0,-100.00,SW,225,5.0,9.0,56,0.00,,,0.00,572.000000,,2013-05-07 22:42:00,
2013-05-07 14:52:00,42.0,27.0,-100.00,SW,225,5.0,9.0,56,0.00,,,0.00,572.000000,,2013-05-07 22:52:00,
2013-05-07 15:21:00,41.0,29.0,-100.00,SW,217,3.0,6.0,62,0.00,,,0.00,167.000000,,2013-05-07 23:21:00,
2013-05-07 15:32:00,41.0,29.0,-100.00,SW,217,3.0,6.0,62,0.00,,,0.00,167.000000,,2013-05-07 23:32:00,
2013-05-07 15:41:00,41.0,29.0,-100.00,SW,217,3.0,6.0,62,0.00,,,0.00,167.000000,,2013-05-07 23:41:00,
2013-05-07 15:52:00,41.0,29.0,-100.00,SW,217,3.0,6.0,62,0.00,,,0.00,167.000000,,2013-05-07 23:52:00,
2013-05-07 16:21:00,43.0,30.0,-100.00,NW,310,3.0,6.0,59,0.00,,,0.00,215.000000,,2013-05-08 00:21:00,
2013-05-07 16:32:00,43.0,30.0,-100.00,NW,310,3.0,6.0,59,0.00,,,0.00,215.000000,,2013-05-08 00:32:00,
2013-05-07 16:42:00,43.0,30.0,-100.00,NW,310,3.0,6.0,59,0.00,,,0.00,215.000000,,2013-05-08 00:42:00,
2013-05-07 16:51:00,43.0,30.0,-100.00,NW,310,3.0,6.0,59,0.00,,,0.00,215.000000,,2013-05-08 00:51:00,
2013-05-07 17:21:00,43.0,27.0,-100.00,WNW,291,2.0,5.0,53,0.00,,,0.00,226.000000,,2013-05-08 01:21:00,
2013-05-07 17:31:00,43.0,27.0,-100.00,WNW,291,2.0,5.0,53,0.00,,,0.00,226.000000,,2013-05-08 01:31:00,
2013-05-07 17:42:00,43.0,27.0,-100.00,WNW,291,2.0,5.0,53,0.00,,,0.00,226.000000,,2013-05-08 01:42:00,
2013-05-07 17:52:00,43.0,27.0,-100.00,WNW,291,2.0,5.0,53,0.00,,,0.00,226.000000,,2013-05-08 01:52:00,
2013-05-07 18:22:00,42.0,26.0,-100.00,WNW,301,2.0,5.0,52,0.00,,,0.00,135.000000,,2013-05-08 02:22:00,
2013-05-07 18:31:00,42.0,26.0,-100.00,WNW,301,2.0,5.0,52,0.00,,,0.00,135.000000,,2013-05-08 02:31:00,
2013-05-07 18:42:00,42.0,26.0,-100.00,WNW,301,2.0,5.0,52,0.00,,,0.00,135.000000,,2013-05-08 02:42:00,
2013-05-07 18:52:00,42.0,26.0,-100.00,WNW,301,2.0,5.0,52,0.00,,,0.00,135.000000,,2013-05-08 02:52:00,
2013-05-07 19:21:00,42.0,27.0,-100.00,WNW,295,2.0,5.0,55,0.00,,,-99.99,128.000000,,2013-05-08 03:21:00,
2013-05-07 19:32:00,42.0,27.0,-100.00,WNW,295,2.0,5.0,55,0.00,,,-99.99,128.000000,,2013-05-08 03:32:00,
2013-05-07 19:43:00,42.0,27.0,-100.00,WNW,295,2.0,5.0,55,0.00,,,-99.99,128.000000,,2013-05-08 03:43:00,
2013-05-07 19:52:00,42.0,27.0,-100.00,WNW,295,2.0,5.0,55,0.00,,,-99.99,128.000000,,2013-05-08 03:52:00,
2013-05-07 20:22:00,42.0,24.0,-100.00,North,359,3.0,6.0,48,0.00,,,0.00,143.000000,,2013-05-08 04:22:00,
2013-05-07 20:33:00,42.0,24.0,-100.00,North,359,3.0,6.0,48,0.00,,,0.00,143.000000,,2013-05-08 04:33:00,
2013-05-07 20:42:00,42.0,24.0,-100.00,North,359,3.0,6.0,48,0.00,,,0.00,143.000000,,2013-05-08 04:42:00,
2013-05-07 20:52:00,42.0,24.0,-100.00,North,359,3.0,6.0,48,0.00,,,0.00,143.000000,,2013-05-08 04:52:00,
2013-05-07 21:22:00,40.0,24.0,-100.00,North,359,1.0,5.0,52,0.00,,,0.00,87.000000,,2013-05-08 05:22:00,
2013-05-07 21:32:00,40.0,24.0,-100.00,North,359,1.0,5.0,52,0.00,,,0.00,87.000000,,2013-05-08 05:32:00,
2013-05-07 21:42:00,40.0,24.0,-100.00,North,359,1.0,5.0,52,0.00,,,0.00,87.000000,,2013-05-08 05:42:00,
2013-05-07 21:52:00,40.0,24.0,-100.00,North,359,1.0,5.0,52,0.00,,,0.00,87.000000,,2013-05-08 05:52:00,
2013-05-07 22:21:00,37.0,23.0,-100.00,East,96,2.0,4.0,57,0.00,,,0.00,30.000000,,2013-05-08 06:21:00,
2013-05-07 22:32:00,37.0,23.0,-100.00,East,96,2.0,4.0,57,0.00,,,0.00,30.000000,,2013-05-08 06:32:00,
2013-05-07 22:41:00,37.0,23.0,-100.00,East,96,2.0,4.0,57,0.00,,,0.00,30.000000,,2013-05-08 06:41:00,
2013-05-07 22:51:00,37.0,23.0,-100.00,East,96,2.0,4.0,57,0.00,,,0.00,30.000000,,2013-05-08 06:51:00,
2013-05-07 23:21:00,36.0,25.0,-100.00,SE,146,2.0,5.0,63,0.00,,,0.00,5.000000,,2013-05-08 07:21:00,
2013-05-07 23:31:00,36.0,25.0,-100.00,SE,146,2.0,5.0,63,0.00,,,0.00,5.000000,,2013-05-08 07:31:00,
2013-05-07 23:42:00,36.0,25.0,-100.00,SE,146,2.0,5.0,63,0.00,,,0.00,5.000000,,2013-05-08 07:42:00,
2013-05-07 23:52:00,36.0,25.0,-100.00,SE,146,2.0,5.0,63,0.00,,,0.00,5.000000,,2013-05-08 07:52:00,